Time;durP1;ratioP1;P1;durP2;ratioP2;P2;SDS_P1;SDS_P2;PMS_P1;PMS_P2;Temp;Humidity;BMP_temperature;BMP_pressure;BME280_temperature;BME280_humidity;BME280_pressure;Samples;Min_cycle;Max_cycle;Signal;HPM_P1;HPM_P2
2021/12/05 00:21:02;;;;;;;20.15;13.10;;;2.80;99.90;;;;;;5094636;28;20025;-78
2021/12/05 00:26:20;;;;;;;20.02;13.38;;;2.80;99.90;;;;;;5090651;28;20027;-77
2021/12/05 00:31:33;;;;;;;20.80;13.35;;;2.80;99.90;;;;;;5073595;28;20021;-77
2021/12/05 00:34:19;;;;;;;18.13;12.13;;;2.80;99.90;;;;;;5082562;28;20032;-78
2021/12/05 00:52:23;;;;;;;17.88;11.45;;;2.70;99.90;;;;;;5073045;28;20032;-78
2021/12/05 01:06:34;;;;;;;17.13;10.90;;;2.70;99.90;;;;;;5019509;28;20037;-78
2021/12/05 01:12:01;;;;;;;14.80;10.70;;;2.80;99.90;;;;;;5056632;28;20044;-77
2021/12/05 01:14:53;;;;;;;15.70;11.20;;;2.70;99.90;;;;;;5072673;28;20020;-77
2021/12/05 01:17:25;;;;;;;17.88;11.90;;;2.80;99.90;;;;;;5054114;28;20033;-77
2021/12/05 01:19:51;;;;;;;15.73;11.40;;;2.70;99.90;;;;;;5056966;28;20029;-77
2021/12/05 01:22:20;;;;;;;24.02;14.68;;;2.70;99.90;;;;;;5073235;28;20067;-77
2021/12/05 01:24:59;;;;;;;16.38;12.23;;;2.70;99.90;;;;;;5055850;28;20115;-77
2021/12/05 01:27:47;;;;;;;16.70;11.73;;;2.80;99.90;;;;;;5072190;28;20154;-77
2021/12/05 01:30:35;;;;;;;18.25;12.48;;;2.80;99.90;;;;;;5074235;28;20533;-78
2021/12/05 01:33:12;;;;;;;16.98;11.90;;;2.80;99.90;;;;;;5074150;28;20031;-77
2021/12/05 01:46:25;;;;;;;17.08;12.23;;;2.90;99.90;;;;;;5074662;28;20085;-77
2021/12/05 01:49:06;;;;;;;16.08;11.82;;;2.90;99.90;;;;;;5073200;28;20089;-78
2021/12/05 01:59:38;;;;;;;17.65;12.60;;;2.90;99.90;;;;;;5079983;28;20028;-77
2021/12/05 02:29:43;;;;;;;16.98;12.10;;;2.90;99.90;;;;;;5077653;28;20071;-77
2021/12/05 02:38:11;;;;;;;16.48;12.15;;;3.00;99.90;;;;;;5074910;28;20020;-77
2021/12/05 02:43:07;;;;;;;15.55;11.60;;;3.00;99.90;;;;;;5076475;28;20031;-77
2021/12/05 02:45:29;;;;;;;18.02;12.65;;;3.00;99.90;;;;;;5078916;28;20037;-77
2021/12/05 02:47:55;;;;;;;18.90;12.27;;;3.00;99.90;;;;;;5074803;28;20381;-77
2021/12/05 02:50:26;;;;;;;20.10;12.48;;;3.00;99.90;;;;;;5075256;28;20095;-77
2021/12/05 02:52:56;;;;;;;17.52;12.50;;;3.00;99.90;;;;;;5075154;28;20032;-77
2021/12/05 02:55:35;;;;;;;18.60;12.88;;;3.00;99.90;;;;;;5069995;22;20042;-77
2021/12/05 02:58:03;;;;;;;20.05;12.93;;;3.00;99.90;;;;;;5043227;28;20033;-80
2021/12/05 03:00:40;;;;;;;18.77;13.23;;;2.90;99.90;;;;;;5023831;28;20117;-79
2021/12/05 03:03:19;;;;;;;19.25;12.93;;;3.00;99.90;;;;;;5036449;28;20025;-75
2021/12/05 03:05:50;;;;;;;21.70;13.77;;;3.00;99.90;;;;;;5048363;28;20029;-82
2021/12/05 03:08:15;;;;;;;20.70;14.13;;;3.00;99.90;;;;;;5045048;28;20038;-81
2021/12/05 03:10:41;;;;;;;24.10;14.05;;;3.00;99.90;;;;;;5033646;28;20044;-82
2021/12/05 03:13:07;;;;;;;20.85;12.98;;;3.00;99.90;;;;;;5050989;28;20025;-81
2021/12/05 03:15:32;;;;;;;20.80;13.88;;;3.10;99.90;;;;;;5048558;28;20061;-81
2021/12/05 03:17:58;;;;;;;21.42;14.27;;;3.10;99.90;;;;;;5028529;28;20133;-80
2021/12/05 03:20:24;;;;;;;22.73;14.45;;;3.10;99.90;;;;;;5029180;28;20033;-80
2021/12/05 03:22:51;;;;;;;20.67;14.13;;;3.00;99.90;;;;;;5042627;28;20079;-81
2021/12/05 03:25:16;;;;;;;25.38;15.00;;;3.00;99.90;;;;;;5038566;28;20026;-81
2021/12/05 03:27:42;;;;;;;22.50;15.00;;;3.10;99.90;;;;;;5040067;28;20324;-80
2021/12/05 03:30:11;;;;;;;22.40;14.48;;;3.10;99.90;;;;;;5047794;28;20045;-81
2021/12/05 03:32:38;;;;;;;25.05;15.18;;;3.10;99.90;;;;;;5034493;28;20106;-81
2021/12/05 03:35:06;;;;;;;26.70;15.65;;;3.10;99.90;;;;;;5052424;28;20031;-82
2021/12/05 03:37:32;;;;;;;25.88;15.18;;;3.10;99.90;;;;;;5033782;28;20049;-83
2021/12/05 03:39:57;;;;;;;24.30;15.32;;;3.10;99.90;;;;;;5051664;28;20048;-82
2021/12/05 03:42:23;;;;;;;27.83;15.98;;;3.10;99.90;;;;;;5033980;28;20033;-82
2021/12/05 03:44:49;;;;;;;28.33;15.90;;;3.10;99.90;;;;;;5051973;28;20108;-83
2021/12/05 03:47:15;;;;;;;26.02;16.25;;;3.10;99.90;;;;;;5034748;28;20044;-82
2021/12/05 03:49:41;;;;;;;28.00;17.77;;;3.10;99.90;;;;;;5052406;28;20065;-82
2021/12/05 03:52:11;;;;;;;29.67;16.35;;;3.10;99.90;;;;;;5035365;28;20032;-83
2021/12/05 03:54:36;;;;;;;27.85;16.38;;;3.10;99.90;;;;;;5035907;28;20033;-80
2021/12/05 03:57:04;;;;;;;26.90;16.58;;;3.10;99.90;;;;;;5049209;28;20041;-82
2021/12/05 03:59:31;;;;;;;27.67;17.42;;;3.00;99.90;;;;;;5049886;28;20049;-82
2021/12/05 04:01:58;;;;;;;30.38;18.05;;;3.00;99.90;;;;;;5039652;28;20029;-78
2021/12/05 04:04:24;;;;;;;28.40;16.88;;;3.10;99.90;;;;;;5035164;28;20056;-78
2021/12/05 04:06:50;;;;;;;32.63;18.88;;;3.00;99.90;;;;;;5036555;28;20026;-79
2021/12/05 04:09:18;;;;;;;35.88;19.85;;;2.90;99.90;;;;;;5039845;28;20029;-81
2021/12/05 04:11:55;;;;;;;31.27;18.58;;;2.90;99.90;;;;;;5020321;28;20035;-78
2021/12/05 04:14:23;;;;;;;34.53;19.58;;;2.90;99.90;;;;;;5036752;28;20028;-78
2021/12/05 04:16:48;;;;;;;35.80;20.42;;;2.90;99.90;;;;;;5019711;28;20025;-79
2021/12/05 04:19:16;;;;;;;32.70;19.58;;;2.90;99.90;;;;;;5040239;28;20034;-81
2021/12/05 04:21:42;;;;;;;39.42;20.30;;;2.90;99.90;;;;;;5040598;28;20435;-80
2021/12/05 04:24:11;;;;;;;39.53;20.85;;;2.90;99.90;;;;;;5042069;28;20024;-81
2021/12/05 04:26:38;;;;;;;38.55;21.42;;;2.90;99.90;;;;;;5038174;28;20021;-79
2021/12/05 04:29:05;;;;;;;38.65;20.67;;;2.90;99.90;;;;;;5043330;28;20112;-80
2021/12/05 04:31:32;;;;;;;36.47;19.40;;;3.00;99.90;;;;;;5035958;28;20022;-78
2021/12/05 04:33:57;;;;;;;35.72;20.38;;;2.90;99.90;;;;;;5035523;28;20029;-78
2021/12/05 04:36:23;;;;;;;39.03;20.98;;;2.90;99.90;;;;;;5037619;28;20097;-80
2021/12/05 04:38:49;;;;;;;40.47;20.92;;;2.90;99.90;;;;;;5036830;28;20032;-79
2021/12/05 04:41:15;;;;;;;38.33;21.27;;;3.00;99.90;;;;;;5019761;28;20098;-78
2021/12/05 04:43:41;;;;;;;43.22;23.63;;;3.00;99.90;;;;;;5022136;28;20087;-80
2021/12/05 04:46:12;;;;;;;39.05;20.90;;;3.00;99.90;;;;;;5041633;28;20025;-78
2021/12/05 04:48:39;;;;;;;41.60;21.95;;;3.00;99.90;;;;;;5026843;28;20026;-80
2021/12/05 04:51:08;;;;;;;42.65;21.17;;;3.00;99.90;;;;;;5048507;28;20394;-81
2021/12/05 04:53:34;;;;;;;41.92;21.63;;;2.90;99.90;;;;;;5049238;28;20024;-82
2021/12/05 04:56:00;;;;;;;41.03;21.67;;;2.90;99.90;;;;;;5026605;28;20085;-78
2021/12/05 04:58:25;;;;;;;45.78;22.50;;;2.90;99.90;;;;;;5027882;28;20026;-80
2021/12/05 05:00:53;;;;;;;47.50;23.40;;;2.90;99.90;;;;;;5021055;28;20029;-80
2021/12/05 05:03:20;;;;;;;48.15;24.65;;;2.90;99.90;;;;;;5018305;28;20026;-79
2021/12/05 05:05:55;;;;;;;44.72;24.83;;;2.80;99.90;;;;;;5043649;28;20104;-79
2021/12/05 05:08:21;;;;;;;46.42;23.77;;;2.80;99.90;;;;;;5026334;28;20032;-79
2021/12/05 05:10:47;;;;;;;46.70;22.73;;;2.90;99.90;;;;;;5040237;28;20018;-80
2021/12/05 05:13:13;;;;;;;49.42;23.90;;;2.90;99.90;;;;;;5020671;28;20453;-80
2021/12/05 05:15:40;;;;;;;46.88;23.85;;;2.80;99.90;;;;;;5043954;28;20033;-79
2021/12/05 05:18:07;;;;;;;46.72;24.05;;;2.80;99.90;;;;;;5044532;28;20420;-79
2021/12/05 05:20:42;;;;;;;51.20;23.90;;;2.90;99.90;;;;;;5028174;28;20022;-81
2021/12/05 05:39:45;;;;;;;45.25;21.98;;;2.90;99.90;;;;;;5041703;28;20056;-81
2021/12/05 05:42:41;;;;;;;;;;;3.00;99.90;;;;;;5043249;28;20025;-79
2021/12/05 05:50:17;;;;;;;40.70;21.88;;;2.90;99.90;;;;;;5050794;28;20032;-81
2021/12/05 05:52:43;;;;;;;45.15;23.23;;;2.90;99.90;;;;;;5036911;28;20041;-81
2021/12/05 05:55:10;;;;;;;44.00;23.48;;;2.90;99.90;;;;;;5056095;28;20087;-84
2021/12/05 05:57:44;;;;;;;45.47;23.00;;;2.90;99.90;;;;;;5031976;28;20643;-79
2021/12/05 06:00:29;;;;;;;46.08;23.40;;;2.90;99.90;;;;;;5036082;28;20037;-79
2021/12/05 06:05:39;;;;;;;45.25;23.23;;;2.90;99.90;;;;;;5053317;28;20052;-78
2021/12/05 06:08:05;;;;;;;50.53;24.60;;;2.90;99.90;;;;;;5056731;28;20033;-79
2021/12/05 06:10:32;;;;;;;42.25;22.02;;;2.90;99.90;;;;;;5030941;28;20028;-79
2021/12/05 06:12:59;;;;;;;42.65;22.65;;;2.90;99.90;;;;;;5059792;28;20018;-79
2021/12/05 06:15:27;;;;;;;45.97;23.90;;;2.90;99.90;;;;;;5041695;28;20037;-81
2021/12/05 06:17:53;;;;;;;44.70;23.50;;;2.90;99.90;;;;;;5059112;28;20013;-80
2021/12/05 06:20:24;;;;;;;40.53;22.30;;;2.90;99.90;;;;;;5057845;28;20422;-80
2021/12/05 06:22:50;;;;;;;43.85;23.13;;;2.90;99.90;;;;;;5034171;28;20022;-78
2021/12/05 06:25:23;;;;;;;45.00;22.67;;;2.90;99.90;;;;;;5040584;28;20329;-81
2021/12/05 06:28:01;;;;;;;46.58;23.27;;;2.90;99.90;;;;;;5044052;28;20120;-79
2021/12/05 06:46:17;;;;;;;41.00;21.75;;;2.90;99.90;;;;;;5043245;28;20018;-78
2021/12/05 06:48:44;;;;;;;41.25;21.45;;;2.90;99.90;;;;;;5043326;28;20026;-77
2021/12/05 06:51:16;;;;;;;42.17;22.05;;;2.90;99.90;;;;;;5046109;28;20028;-79
2021/12/05 06:53:41;;;;;;;42.63;23.20;;;2.90;99.90;;;;;;5018104;28;20087;-77
2021/12/05 06:56:07;;;;;;;43.13;21.85;;;2.90;99.90;;;;;;5036107;28;20030;-77
2021/12/05 06:58:34;;;;;;;43.67;23.85;;;2.90;99.90;;;;;;5036336;28;20030;-77
2021/12/05 07:01:01;;;;;;;41.47;22.65;;;2.90;99.90;;;;;;5037045;28;20040;-77
2021/12/05 07:03:27;;;;;;;43.35;23.65;;;2.90;99.90;;;;;;5040273;28;20382;-78
2021/12/05 07:06:20;;;;;;;44.40;24.00;;;2.90;99.90;;;;;;5037144;28;20022;-81
2021/12/05 07:08:42;;;;;;;43.70;23.90;;;2.90;99.90;;;;;;5035873;28;20045;-74
2021/12/05 07:19:30;;;;;;;38.92;22.23;;;2.90;99.90;;;;;;5036039;28;20087;-79
2021/12/05 07:22:03;;;;;;;40.92;22.58;;;2.90;99.90;;;;;;5021607;28;20026;-78
2021/12/05 07:24:53;;;;;;;42.67;23.45;;;2.90;99.90;;;;;;5034395;28;20029;-76
2021/12/05 07:43:39;;;;;;;42.05;22.85;;;2.90;99.90;;;;;;5046559;28;20093;-78
2021/12/05 07:46:07;;;;;;;37.30;21.50;;;3.00;99.90;;;;;;5030446;28;20092;-80
2021/12/05 07:48:37;;;;;;;39.35;22.45;;;3.00;99.90;;;;;;5048623;28;20030;-80
2021/12/05 07:53:56;;;;;;;37.97;21.25;;;3.00;99.90;;;;;;5050503;28;20018;-79
2021/12/05 07:56:37;;;;;;;35.70;21.40;;;3.00;99.90;;;;;;5055541;28;20029;-79
2021/12/05 08:16:02;;;;;;;45.13;23.70;;;3.00;99.90;;;;;;5045181;28;20052;-76
2021/12/05 08:18:30;;;;;;;47.97;24.10;;;3.00;99.90;;;;;;5046206;28;20343;-78
2021/12/05 08:20:56;;;;;;;43.47;23.00;;;2.90;99.90;;;;;;5024295;28;20124;-78
2021/12/05 08:23:23;;;;;;;44.90;24.42;;;3.00;99.90;;;;;;5022551;28;20033;-79
2021/12/05 08:25:57;;;;;;;42.20;23.65;;;3.00;99.90;;;;;;5042157;28;20022;-80
2021/12/05 08:28:41;;;;;;;41.78;23.60;;;3.00;99.90;;;;;;5040125;28;20033;-80
2021/12/05 08:31:16;;;;;;;39.65;22.30;;;3.00;99.90;;;;;;5015428;28;20064;-78
2021/12/05 08:33:56;;;;;;;41.10;22.73;;;3.20;99.90;;;;;;5020895;28;20018;-80
2021/12/05 08:36:45;;;;;;;39.35;23.50;;;3.00;99.90;;;;;;5015449;28;20014;-80
2021/12/05 08:42:31;;;;;;;41.78;23.17;;;3.00;99.90;;;;;;5033752;28;20058;-80
2021/12/05 09:21:02;;;;;;;35.88;20.23;;;3.00;99.90;;;;;;5015903;28;20060;-73
2021/12/05 10:06:45;;;;;;;36.63;21.63;;;3.20;99.90;;;;;;5020213;28;20060;-75
2021/12/05 10:13:05;;;;;;;35.35;20.85;;;3.20;99.90;;;;;;5011584;28;20091;-73
2021/12/05 10:16:00;;;;;;;34.47;21.35;;;3.20;99.90;;;;;;5027772;28;20112;-74
2021/12/05 10:35:50;;;;;;;37.65;22.38;;;3.10;99.90;;;;;;5034384;28;20029;-73
2021/12/05 10:38:23;;;;;;;40.30;22.33;;;3.10;99.90;;;;;;5037594;28;20030;-74
2021/12/05 10:41:19;;;;;;;40.65;22.10;;;3.10;99.90;;;;;;5036568;28;20389;-73
2021/12/05 10:43:49;;;;;;;38.97;22.08;;;3.20;99.90;;;;;;5034759;28;20229;-72
2021/12/05 10:46:17;;;;;;;41.28;23.98;;;3.10;99.90;;;;;;5033660;28;20107;-73
2021/12/05 10:48:55;;;;;;;38.78;22.75;;;3.20;99.90;;;;;;5032536;28;20029;-73
2021/12/05 10:51:25;;;;;;;40.95;23.02;;;3.20;99.90;;;;;;5034060;28;20090;-74
2021/12/05 10:53:53;;;;;;;43.22;24.35;;;3.30;99.90;;;;;;5033942;28;20018;-74
2021/12/05 10:56:27;;;;;;;41.20;24.48;;;3.40;99.90;;;;;;5036663;28;20080;-72
2021/12/05 10:58:55;;;;;;;;;;;3.40;99.90;;;;;;5034555;28;20029;-74
2021/12/05 11:01:29;;;;;;;41.00;24.48;;;3.50;99.90;;;;;;5034155;28;19912;-74
2021/12/05 11:04:06;;;;;;;31.95;17.60;;;3.60;99.90;;;;;;5034076;28;20556;-75
2021/12/05 11:06:52;;;;;;;40.30;23.10;;;3.60;99.90;;;;;;5034973;28;20393;-75
2021/12/05 11:09:30;;;;;;;39.05;23.65;;;3.70;99.90;;;;;;5035327;28;20024;-74
2021/12/05 11:12:08;;;;;;;43.35;24.42;;;3.70;99.90;;;;;;5034810;28;20024;-75
2021/12/05 11:14:39;;;;;;;42.97;24.83;;;3.80;99.90;;;;;;5034174;28;20083;-75
2021/12/05 11:17:11;;;;;;;41.80;24.63;;;3.90;99.90;;;;;;5035101;28;20036;-75
2021/12/05 11:19:58;;;;;;;43.45;24.63;;;3.90;99.90;;;;;;5034479;28;20108;-74
2021/12/05 11:22:34;;;;;;;42.92;24.13;;;3.80;99.90;;;;;;5033836;28;20025;-75
2021/12/05 11:25:04;;;;;;;39.47;23.55;;;3.80;99.90;;;;;;5033340;28;20035;-75
2021/12/05 11:27:38;;;;;;;40.10;23.73;;;3.80;99.90;;;;;;5033217;28;20033;-74
2021/12/05 11:30:21;;;;;;;41.78;25.08;;;3.70;99.90;;;;;;5033647;28;20046;-74
2021/12/05 11:32:52;;;;;;;43.88;25.98;;;3.80;99.90;;;;;;5034033;28;20466;-74
2021/12/05 11:35:21;;;;;;;47.38;27.58;;;3.70;99.90;;;;;;5034178;28;20438;-75
2021/12/05 11:37:51;;;;;;;44.33;26.52;;;3.80;99.90;;;;;;5034707;28;20083;-74
2021/12/05 11:40:17;;;;;;;44.65;25.83;;;3.80;99.90;;;;;;5035136;28;20496;-74
2021/12/05 11:43:02;;;;;;;46.17;26.13;;;3.90;99.90;;;;;;5035598;28;20458;-73
2021/12/05 11:45:28;;;;;;;;;;;3.90;99.90;;;;;;5035031;28;20021;-75
2021/12/05 11:47:54;;;;;;;46.72;26.67;;;4.00;99.90;;;;;;5026986;28;19949;-74
2021/12/05 11:50:31;;;;;;;45.03;26.13;;;4.00;99.90;;;;;;5016640;28;20492;-73
2021/12/05 11:52:58;;;;;;;46.40;27.63;;;4.00;99.90;;;;;;5015960;28;20029;-73
2021/12/05 11:55:27;;;;;;;46.28;26.55;;;4.00;99.90;;;;;;5017290;28;20025;-74
2021/12/05 11:57:53;;;;;;;48.80;27.42;;;4.00;99.90;;;;;;5015258;28;20056;-74
2021/12/05 12:00:22;;;;;;;49.17;27.60;;;4.10;99.90;;;;;;5014098;28;20030;-74
2021/12/05 12:02:48;;;;;;;53.58;28.02;;;4.10;99.90;;;;;;5013204;28;20034;-74
2021/12/05 12:05:26;;;;;;;46.38;28.05;;;4.10;99.90;;;;;;5018391;28;20101;-76
2021/12/05 12:08:07;;;;;;;44.38;27.30;;;4.10;99.90;;;;;;5016063;28;20032;-77
2021/12/05 12:10:40;;;;;;;50.90;29.25;;;4.00;99.90;;;;;;5017330;28;20021;-74
2021/12/05 12:13:22;;;;;;;43.78;26.83;;;4.00;99.90;;;;;;5023880;28;20622;-74
2021/12/05 12:16:02;;;;;;;49.67;28.55;;;3.90;99.90;;;;;;5027745;28;20111;-74
2021/12/05 12:18:33;;;;;;;54.28;29.48;;;4.00;99.90;;;;;;5017082;28;20459;-74
2021/12/05 12:21:06;;;;;;;45.63;27.58;;;4.00;99.90;;;;;;5017059;28;20030;-74
2021/12/05 12:23:31;;;;;;;50.75;29.60;;;3.90;99.90;;;;;;5019155;28;20124;-74
2021/12/05 12:25:59;;;;;;;51.10;30.58;;;3.90;99.90;;;;;;5021325;28;20026;-74
2021/12/05 12:28:25;;;;;;;55.20;31.80;;;3.90;99.90;;;;;;5016553;28;20064;-74
2021/12/05 12:31:17;;;;;;;52.03;30.92;;;3.90;99.90;;;;;;5013650;28;20018;-73
2021/12/05 12:33:49;;;;;;;52.42;30.30;;;4.00;99.90;;;;;;5016009;28;20021;-75
2021/12/05 12:36:15;;;;;;;55.63;32.33;;;4.00;99.90;;;;;;5016406;28;20025;-75
2021/12/05 12:38:44;;;;;;;54.60;31.77;;;4.10;99.90;;;;;;5015313;28;20109;-73
2021/12/05 12:41:22;;;;;;;53.55;30.98;;;4.00;99.90;;;;;;5015456;28;20397;-74
2021/12/05 12:43:56;;;;;;;52.40;30.70;;;4.00;99.90;;;;;;5023216;28;20445;-73
2021/12/05 12:46:40;;;;;;;54.63;31.05;;;4.00;99.90;;;;;;5013645;28;20033;-74
2021/12/05 12:49:15;;;;;;;;;;;4.00;99.90;;;;;;5020780;28;20025;-75
2021/12/05 12:51:46;;;;;;;52.92;30.83;;;4.00;99.90;;;;;;5012141;28;19906;-74
2021/12/05 12:54:17;;;;;;;54.67;31.63;;;4.00;99.90;;;;;;5023324;28;20021;-74
2021/12/05 12:57:20;;;;;;;55.08;31.45;;;3.90;99.90;;;;;;5021425;28;20033;-74
2021/12/05 13:00:22;;;;;;;55.70;31.05;;;4.00;99.90;;;;;;5015667;28;20029;-74
2021/12/05 13:11:06;;;;;;;61.22;34.95;;;4.00;99.90;;;;;;5020011;28;20096;-75
2021/12/05 13:13:36;;;;;;;57.50;33.78;;;3.90;99.90;;;;;;5020732;28;20048;-75
2021/12/05 13:16:22;;;;;;;57.15;31.95;;;3.90;99.90;;;;;;5021241;28;20561;-75
2021/12/05 13:18:59;;;;;;;55.78;32.25;;;4.00;99.90;;;;;;5019010;28;20050;-73
2021/12/05 13:21:38;;;;;;;60.95;33.83;;;3.90;99.90;;;;;;5020420;28;20030;-75
2021/12/05 13:24:29;;;;;;;58.65;33.17;;;3.90;99.90;;;;;;5021351;28;20052;-75
2021/12/05 13:27:04;;;;;;;57.70;33.13;;;3.90;99.90;;;;;;5015333;28;20105;-74
2021/12/05 13:29:33;;;;;;;63.00;34.58;;;4.00;99.90;;;;;;5017347;28;20030;-74
2021/12/05 13:32:10;;;;;;;63.35;35.42;;;3.90;99.90;;;;;;5014688;28;20048;-74
2021/12/05 13:34:42;;;;;;;59.33;33.78;;;3.90;99.90;;;;;;5012640;28;20025;-75
2021/12/05 13:37:11;;;;;;;60.80;33.78;;;3.80;99.90;;;;;;5009921;28;20394;-74
2021/12/05 13:39:47;;;;;;;62.97;34.50;;;3.70;99.90;;;;;;5010171;28;20018;-73
2021/12/05 13:42:22;;;;;;;63.22;34.65;;;3.70;99.90;;;;;;5011264;28;20022;-74
2021/12/05 13:45:03;;;;;;;58.78;33.42;;;3.70;99.90;;;;;;5011184;28;20018;-73
2021/12/05 13:47:32;;;;;;;65.38;34.05;;;3.70;99.90;;;;;;5012331;28;20060;-74
2021/12/05 13:50:18;;;;;;;64.05;34.25;;;3.60;99.90;;;;;;5014493;28;20021;-74
2021/12/05 13:53:07;;;;;;;58.28;32.47;;;3.60;99.90;;;;;;5006054;28;20454;-74
2021/12/05 13:55:41;;;;;;;61.42;33.60;;;3.60;99.90;;;;;;5009981;28;20129;-72
2021/12/05 13:58:26;;;;;;;;;;;3.50;99.90;;;;;;5014645;28;20030;-74
2021/12/05 14:01:03;;;;;;;65.65;33.30;;;3.50;99.90;;;;;;5014355;28;19971;-75
2021/12/05 14:03:41;;;;;;;67.05;34.15;;;3.50;99.90;;;;;;5015230;28;20025;-73
2021/12/05 14:06:27;;;;;;;63.22;34.90;;;3.50;99.90;;;;;;5014300;28;20029;-74
2021/12/05 14:08:58;;;;;;;65.55;34.90;;;3.40;99.90;;;;;;5013569;28;20076;-73
2021/12/05 14:11:26;;;;;;;61.55;34.28;;;3.30;99.90;;;;;;5014935;28;20025;-73
2021/12/05 14:13:52;;;;;;;63.17;34.17;;;3.30;99.90;;;;;;5013695;28;20026;-73
2021/12/05 14:16:20;;;;;;;60.17;33.40;;;3.30;99.90;;;;;;5023880;28;20025;-73
2021/12/05 14:18:46;;;;;;;60.60;32.60;;;3.30;99.90;;;;;;5036220;28;20037;-74
2021/12/05 14:21:18;;;;;;;60.47;32.88;;;3.20;99.90;;;;;;5040804;28;20072;-73
2021/12/05 14:23:56;;;;;;;58.35;31.35;;;3.20;99.90;;;;;;5034640;28;20036;-71
2021/12/05 14:26:25;;;;;;;58.80;31.52;;;3.20;99.90;;;;;;5039179;28;20030;-74
2021/12/05 14:29:26;;;;;;;59.38;31.65;;;3.10;99.90;;;;;;5034815;28;20032;-73
2021/12/05 14:32:04;;;;;;;57.78;31.17;;;3.10;99.90;;;;;;5014330;28;20029;-74
2021/12/05 14:34:30;;;;;;;61.75;33.65;;;3.20;99.90;;;;;;5034895;28;20390;-77
2021/12/05 14:37:03;;;;;;;51.47;29.77;;;3.20;99.90;;;;;;5035592;28;20029;-73
2021/12/05 14:39:55;;;;;;;52.35;30.20;;;3.20;99.90;;;;;;5034171;28;20118;-74
2021/12/05 14:42:23;;;;;;;53.90;30.77;;;3.20;99.90;;;;;;5034224;28;20024;-73
2021/12/05 14:44:55;;;;;;;56.45;31.02;;;3.10;99.90;;;;;;5032833;28;20026;-72
2021/12/05 14:47:24;;;;;;;56.83;30.55;;;3.10;99.90;;;;;;5017029;28;20037;-73
2021/12/05 14:49:54;;;;;;;52.70;29.60;;;3.00;99.90;;;;;;5014287;28;20032;-74
2021/12/05 14:52:31;;;;;;;54.67;29.73;;;3.00;99.90;;;;;;5014553;28;20487;-73
2021/12/05 14:54:59;;;;;;;50.60;29.17;;;3.00;99.90;;;;;;5061122;22;20021;-80
2021/12/05 14:57:31;;;;;;;57.00;30.95;;;3.10;99.90;;;;;;5048003;28;20029;-82
2021/12/05 15:00:13;;;;;;;57.83;29.70;;;2.90;99.90;;;;;;5055431;28;20081;-80
2021/12/05 15:02:39;;;;;;;50.17;28.33;;;2.90;99.90;;;;;;5054532;28;20029;-80
2021/12/05 15:05:09;;;;;;;49.03;28.45;;;2.80;99.90;;;;;;5047450;28;20072;-80
2021/12/05 15:07:35;;;;;;;47.83;27.88;;;2.80;99.90;;;;;;5046902;28;20113;-83
2021/12/05 15:10:01;;;;;;;48.28;27.85;;;2.90;99.90;;;;;;5053719;28;20048;-78
2021/12/05 15:12:33;;;;;;;50.70;28.90;;;2.90;99.90;;;;;;5056617;28;20473;-79
2021/12/05 15:15:07;;;;;;;51.50;28.63;;;2.90;99.90;;;;;;5034091;28;20371;-78
2021/12/05 15:17:36;;;;;;;58.45;31.25;;;2.90;99.90;;;;;;5047468;28;20017;-81
2021/12/05 15:20:14;;;;;;;50.60;28.63;;;2.90;99.90;;;;;;5064420;28;20045;-81
2021/12/05 15:22:44;;;;;;;51.65;28.83;;;2.90;99.90;;;;;;5070319;28;20025;-80
2021/12/05 15:25:13;;;;;;;57.88;29.58;;;2.90;99.90;;;;;;5068854;28;20020;-80
2021/12/05 15:27:41;;;;;;;52.22;29.63;;;2.90;99.90;;;;;;5063967;28;20028;-79
2021/12/05 15:30:15;;;;;;;60.03;30.13;;;2.90;99.90;;;;;;5047496;28;20098;-81
2021/12/05 15:32:41;;;;;;;49.80;27.63;;;2.90;99.90;;;;;;5065531;28;20029;-82
2021/12/05 15:35:14;;;;;;;53.10;29.67;;;2.90;99.90;;;;;;5048066;28;20052;-80
2021/12/05 15:38:03;;;;;;;56.60;29.90;;;2.90;99.90;;;;;;5073868;28;20029;-80
2021/12/05 15:40:31;;;;;;;57.25;30.13;;;2.90;99.90;;;;;;5055835;28;20174;-81
2021/12/05 15:43:18;;;;;;;52.40;28.85;;;2.90;99.90;;;;;;5072787;28;20036;-80
2021/12/05 15:45:46;;;;;;;49.50;27.98;;;2.80;99.90;;;;;;5072144;28;20429;-80
2021/12/05 15:48:22;;;;;;;51.50;28.02;;;2.80;99.90;;;;;;5067008;28;20055;-81
2021/12/05 15:50:50;;;;;;;60.30;31.42;;;2.80;99.90;;;;;;5068525;28;20470;-82
2021/12/05 15:53:16;;;;;;;53.35;28.17;;;2.70;99.90;;;;;;5067142;28;20177;-80
2021/12/05 15:55:50;;;;;;;49.00;26.70;;;2.70;99.90;;;;;;5066747;28;20051;-82
2021/12/05 15:58:25;;;;;;;51.70;28.13;;;2.70;99.90;;;;;;5065169;28;20021;-85
2021/12/05 16:00:53;;;;;;;48.00;26.50;;;2.70;99.90;;;;;;5064891;28;20433;-81
2021/12/05 16:03:24;;;;;;;52.83;27.17;;;2.70;99.90;;;;;;5064464;28;20055;-83
2021/12/05 16:05:55;;;;;;;51.25;27.23;;;2.70;99.90;;;;;;5065308;28;20048;-82
2021/12/05 16:08:21;;;;;;;52.60;27.25;;;2.70;99.90;;;;;;5063892;28;20025;-80
2021/12/05 16:10:57;;;;;;;53.83;27.80;;;2.70;99.90;;;;;;5064536;28;20028;-82
2021/12/05 16:13:26;;;;;;;54.47;28.52;;;2.70;99.90;;;;;;5046967;28;20025;-83
2021/12/05 16:15:53;;;;;;;51.67;27.33;;;2.70;99.90;;;;;;5062754;28;20021;-83
2021/12/05 16:18:33;;;;;;;48.65;26.48;;;2.70;99.90;;;;;;5070219;28;20066;-80
2021/12/05 16:21:05;;;;;;;47.00;27.00;;;2.70;99.90;;;;;;5074745;28;20074;-79
2021/12/05 16:23:34;;;;;;;49.40;26.20;;;2.70;99.90;;;;;;5062779;28;20449;-78
2021/12/05 16:26:13;;;;;;;50.60;25.02;;;2.70;99.90;;;;;;5062557;28;20025;-80
2021/12/05 16:28:43;;;;;;;52.10;26.52;;;2.80;99.90;;;;;;5066787;28;20050;-82
2021/12/05 16:31:15;;;;;;;53.65;25.60;;;2.80;99.90;;;;;;5065693;28;20057;-81
2021/12/05 16:33:47;;;;;;;49.38;25.92;;;2.90;99.90;;;;;;5062044;28;20009;-82
2021/12/05 16:36:13;;;;;;;53.13;27.60;;;2.90;99.90;;;;;;5045163;28;20024;-83
2021/12/05 16:38:45;;;;;;;53.72;26.58;;;3.00;99.90;;;;;;5064219;28;20027;-83
2021/12/05 16:41:21;;;;;;;49.47;26.95;;;2.90;99.90;;;;;;5067277;28;20021;-82
2021/12/05 16:44:03;;;;;;;57.20;27.38;;;2.90;99.90;;;;;;5056652;28;20025;-81
2021/12/05 16:46:48;;;;;;;56.65;27.58;;;2.90;99.90;;;;;;5057986;28;20029;-81
2021/12/05 16:49:18;;;;;;;49.47;26.60;;;2.90;99.90;;;;;;5063396;28;20029;-81
2021/12/05 16:51:48;;;;;;;49.25;25.85;;;3.00;99.90;;;;;;5051067;28;20045;-81
2021/12/05 16:54:25;;;;;;;63.08;30.85;;;3.00;99.90;;;;;;5052212;28;20021;-80
2021/12/05 16:57:01;;;;;;;51.67;27.17;;;3.00;99.90;;;;;;5047772;28;20021;-80
2021/12/05 16:59:49;;;;;;;58.55;29.55;;;3.00;99.90;;;;;;5042288;28;20021;-82
2021/12/05 17:02:51;;;;;;;69.50;30.33;;;3.00;99.90;;;;;;5024044;28;20057;-82
2021/12/05 17:05:27;;;;;;;67.60;31.30;;;3.00;99.90;;;;;;5024914;28;20039;-80
2021/12/05 17:08:02;;;;;;;59.67;29.90;;;3.00;99.90;;;;;;5041817;28;20025;-82
2021/12/05 17:10:27;;;;;;;61.70;28.77;;;3.00;99.90;;;;;;5025490;28;20037;-80
2021/12/05 17:13:07;;;;;;;60.78;28.50;;;3.10;99.90;;;;;;5025850;28;20025;-81
2021/12/05 17:15:35;;;;;;;70.93;33.90;;;3.00;99.90;;;;;;5048016;28;20017;-81
2021/12/05 17:18:04;;;;;;;63.83;31.90;;;3.00;99.90;;;;;;5029496;28;20053;-81
2021/12/05 17:20:37;;;;;;;71.78;33.20;;;3.00;99.90;;;;;;5047351;28;20026;-80
2021/12/05 17:23:05;;;;;;;63.40;30.58;;;3.00;99.90;;;;;;5050677;28;20029;-81
2021/12/05 17:25:35;;;;;;;66.65;30.80;;;3.00;99.90;;;;;;5031554;28;20056;-81
2021/12/05 17:28:03;;;;;;;72.30;35.28;;;3.00;99.90;;;;;;5049162;28;20022;-80
2021/12/05 17:30:29;;;;;;;67.10;32.30;;;3.10;99.90;;;;;;5053681;28;20044;-81
2021/12/05 17:32:56;;;;;;;60.95;30.58;;;3.00;99.90;;;;;;5056038;28;20084;-80
2021/12/05 17:35:25;;;;;;;61.15;30.23;;;3.00;99.90;;;;;;5050892;28;20033;-82
2021/12/05 17:37:50;;;;;;;61.08;30.20;;;3.00;99.90;;;;;;5045948;28;20072;-81
2021/12/05 17:40:16;;;;;;;60.92;30.58;;;3.00;99.90;;;;;;5046327;28;20128;-81
2021/12/05 17:42:43;;;;;;;70.13;30.70;;;3.00;99.90;;;;;;5048821;28;20029;-82
2021/12/05 17:45:10;;;;;;;62.63;29.58;;;3.00;99.90;;;;;;5049097;28;20025;-79
2021/12/05 17:47:37;;;;;;;65.53;31.10;;;3.00;99.90;;;;;;5051516;28;20214;-81
2021/12/05 17:50:07;;;;;;;64.15;32.20;;;3.00;99.90;;;;;;5047659;28;20028;-81
2021/12/05 17:52:33;;;;;;;79.70;36.03;;;3.10;99.90;;;;;;5029706;28;20037;-81
2021/12/05 17:55:06;;;;;;;72.15;34.15;;;3.10;99.90;;;;;;5045886;28;20099;-79
2021/12/05 17:57:41;;;;;;;69.90;34.83;;;3.00;99.90;;;;;;5046292;28;20021;-81
2021/12/05 18:00:33;;;;;;;66.30;30.88;;;3.00;99.90;;;;;;5052456;28;20036;-81
2021/12/05 18:03:01;;;;;;;65.53;31.25;;;3.00;99.90;;;;;;5034148;28;20032;-79
2021/12/05 18:05:35;;;;;;;73.78;32.33;;;3.00;99.90;;;;;;5033022;28;20033;-82
2021/12/05 18:08:05;;;;;;;71.05;33.05;;;3.00;99.90;;;;;;5052494;28;20048;-82
2021/12/05 18:10:35;;;;;;;66.82;33.28;;;3.00;99.90;;;;;;5057791;28;20010;-83